createdAt,value
2023-05-17T00:00:13.445Z,98569.72
2023-05-17T00:01:46.827Z,98568.03
2023-05-17T00:03:20.885Z,98574.19
2023-05-17T00:04:54.552Z,98583.22
2023-05-17T00:06:28.049Z,98577.84
2023-05-17T00:08:01.285Z,98581.50
2023-05-17T00:09:34.599Z,98582.34
2023-05-17T00:11:07.890Z,98567.91
2023-05-17T00:12:41.108Z,98566.94
2023-05-17T00:14:16.224Z,98559.03
2023-05-17T00:15:49.669Z,98569.72
2023-05-17T00:17:22.953Z,98559.25
2023-05-17T00:18:56.201Z,98561.22
2023-05-17T00:20:29.520Z,98554.13
2023-05-17T00:22:02.043Z,98568.47
2023-05-17T00:23:35.658Z,98574.69
2023-05-17T00:25:09.264Z,98574.31
2023-05-17T00:26:42.451Z,98572.63
2023-05-17T00:28:15.837Z,98563.50
2023-05-17T00:29:50.371Z,98560.72
2023-05-17T00:31:22.577Z,98566.06
2023-05-17T00:32:55.791Z,98559.78
2023-05-17T00:34:29.132Z,98561.94
2023-05-17T00:36:02.399Z,98555.59
2023-05-17T00:37:35.619Z,98556.56
2023-05-17T00:39:09.877Z,98568.25
2023-05-17T00:40:43.867Z,98567.03
2023-05-17T00:42:17.161Z,98565.41
2023-05-17T00:43:49.319Z,98580.31
2023-05-17T00:45:23.933Z,98582.25
2023-05-17T00:46:59.865Z,98589.69
2023-05-17T00:48:33.707Z,98588.22
2023-05-17T00:50:08.062Z,98588.44
2023-05-17T00:51:41.902Z,98590.41
2023-05-17T00:53:17.158Z,98575.69
2023-05-17T00:54:51.617Z,98587.50
2023-05-17T00:56:25.333Z,98579.75
2023-05-17T00:57:58.847Z,98570.91
2023-05-17T00:59:32.198Z,98573.53
2023-05-17T01:01:06.916Z,98569.63
2023-05-17T01:02:40.208Z,98561.19
2023-05-17T01:04:14.909Z,98557.13
2023-05-17T01:05:48.804Z,98552.44
2023-05-17T01:07:22.027Z,98556.41
2023-05-17T01:08:54.489Z,98555.22
2023-05-17T01:10:38.326Z,98557.59
2023-05-17T01:12:23.496Z,98557.03
2023-05-17T01:14:01.378Z,98560.16
2023-05-17T01:15:37.870Z,98562.06
2023-05-17T01:17:18.599Z,98562.94
2023-05-17T01:18:58.916Z,98567.19
2023-05-17T01:20:38.175Z,98566.47
2023-05-17T01:22:17.866Z,98565.72
2023-05-17T01:24:00.689Z,98562.53
2023-05-17T01:25:51.466Z,98557.19
2023-05-17T01:27:26.927Z,98556.31
2023-05-17T01:29:01.934Z,98559.09
2023-05-17T01:32:49.413Z,98555.34
2023-05-17T01:34:27.242Z,98556.53
2023-05-17T01:36:00.473Z,98546.09
2023-05-17T01:37:33.793Z,98556.75
2023-05-17T01:39:08.727Z,98553.34
2023-05-17T01:40:49.397Z,98552.47
2023-05-17T01:42:24.653Z,98551.63
2023-05-17T01:44:09.618Z,98552.25
2023-05-17T01:45:48.429Z,98549.81
2023-05-17T01:47:34.984Z,98555.25
2023-05-17T01:49:17.507Z,98533.28
2023-05-17T01:50:53.650Z,98533.59
2023-05-17T01:52:32.210Z,98536.28
2023-05-17T01:54:12.306Z,98523.50
2023-05-17T01:55:51.219Z,98531.81
2023-05-17T01:57:29.789Z,98535.31
2023-05-17T01:59:07.881Z,98531.81
2023-05-17T02:00:43.013Z,98526.47
2023-05-17T02:02:16.794Z,98527.09
2023-05-17T02:03:50.696Z,98515.34
2023-05-17T02:05:23.988Z,98510.25
2023-05-17T02:06:57.143Z,98518.38
2023-05-17T02:08:30.519Z,98525.59
2023-05-17T02:10:04.093Z,98517.50
2023-05-17T02:11:37.865Z,98508.53
2023-05-17T02:13:11.217Z,98511.84
2023-05-17T02:14:46.037Z,98518.56
2023-05-17T02:16:19.692Z,98519.41
2023-05-17T02:17:52.213Z,98525.41
2023-05-17T02:19:25.542Z,98521.97
2023-05-17T02:20:58.916Z,98534.38
2023-05-17T02:22:31.480Z,98521.75
2023-05-17T02:24:04.917Z,98518.88
2023-05-17T02:25:38.050Z,98526.88
2023-05-17T02:27:12.357Z,98509.28
2023-05-17T02:28:45.849Z,98516.63
2023-05-17T02:30:22.321Z,98508.13
2023-05-17T02:31:55.507Z,98517.28
2023-05-17T02:33:28.144Z,98517.50
2023-05-17T02:35:02.846Z,98510.47
2023-05-17T02:36:36.113Z,98515.91
2023-05-17T02:38:08.546Z,98519.66
2023-05-17T02:39:41.893Z,98516.97
2023-05-17T02:41:15.301Z,98514.53
2023-05-17T02:42:48.610Z,98510.25
2023-05-17T02:44:21.859Z,98523.50
2023-05-17T02:45:56.437Z,98524.31
2023-05-17T02:47:30.130Z,98523.03
2023-05-17T02:49:02.458Z,98518.25
2023-05-17T02:50:36.316Z,98516.88
2023-05-17T02:52:08.525Z,98517.28
2023-05-17T02:53:42.178Z,98525.19
2023-05-17T02:55:14.478Z,98516.44
2023-05-17T02:56:47.741Z,98520.47
2023-05-17T02:58:21.083Z,98523.03
2023-05-17T02:59:54.505Z,98517.69
2023-05-17T03:01:28.432Z,98512.78
2023-05-17T03:03:02.826Z,98518.97
2023-05-17T03:04:37.103Z,98519.31
2023-05-17T03:06:11.608Z,98516.22
2023-05-17T03:07:44.971Z,98526.69
2023-05-17T03:09:18.388Z,98536.47
2023-05-17T03:10:54.958Z,98540.75
2023-05-17T03:12:29.444Z,98532.63
2023-05-17T03:14:02.760Z,98527.84
2023-05-17T03:15:37.574Z,98534.78
2023-05-17T03:17:12.403Z,98530.31
2023-05-17T03:18:46.790Z,98530.31
2023-05-17T03:20:20.437Z,98529.66
2023-05-17T03:21:54.984Z,98526.88
2023-05-17T03:23:28.498Z,98533.41
2023-05-17T03:25:06.947Z,98539.03
2023-05-17T03:26:40.583Z,98543.53
2023-05-17T03:28:14.971Z,98545.25
2023-05-17T03:29:48.369Z,98546.94
2023-05-17T03:31:22.188Z,98555.69
2023-05-17T03:32:56.958Z,98557.50
2023-05-17T03:34:30.734Z,98559.31
2023-05-17T03:36:03.274Z,98547.91
2023-05-17T03:37:36.748Z,98541.59
2023-05-17T03:39:10.057Z,98549.28
2023-05-17T03:40:45.638Z,98551.66
2023-05-17T03:42:18.882Z,98549.72
2023-05-17T03:43:52.374Z,98547.91
2023-05-17T03:45:28.679Z,98548.22
2023-05-17T03:47:02.213Z,98548.22
2023-05-17T03:48:36.902Z,98556.22
2023-05-17T03:50:11.688Z,98559.31
2023-05-17T03:51:45.254Z,98562.84
2023-05-17T03:53:17.562Z,98564.22
2023-05-17T03:54:51.383Z,98562.06
2023-05-17T03:56:24.904Z,98568.88
2023-05-17T03:57:58.204Z,98579.16
2023-05-17T03:59:32.269Z,98593.00
2023-05-17T04:01:06.241Z,98588.31
2023-05-17T04:02:40.413Z,98582.13
2023-05-17T04:04:14.642Z,98578.47
2023-05-17T04:05:47.974Z,98585.34
2023-05-17T04:07:20.492Z,98586.72
2023-05-17T04:08:55.074Z,98580.22
2023-05-17T04:10:29.105Z,98582.56
2023-05-17T04:12:02.500Z,98572.97
2023-05-17T04:13:36.506Z,98581.72
2023-05-17T04:15:10.818Z,98582.00
2023-05-17T04:16:46.728Z,98587.22
2023-05-17T04:18:20.833Z,98595.78
2023-05-17T04:19:55.768Z,98597.28
2023-05-17T04:21:29.551Z,98585.66
2023-05-17T04:23:02.982Z,98584.03
2023-05-17T04:24:38.779Z,98596.22
2023-05-17T04:26:11.393Z,98581.69
2023-05-17T04:27:46.576Z,98587.13
2023-05-17T04:29:20.711Z,98591.06
2023-05-17T04:30:54.510Z,98587.41
2023-05-17T04:32:29.264Z,98598.88
2023-05-17T04:34:03.922Z,98599.06
2023-05-17T04:35:39.727Z,98591.97
2023-05-17T04:37:13.184Z,98591.94
2023-05-17T04:38:46.506Z,98588.44
2023-05-17T04:40:23.706Z,98592.94
2023-05-17T04:41:57.649Z,98601.81
2023-05-17T04:43:30.911Z,98601.00
2023-05-17T04:45:04.280Z,98593.19
2023-05-17T04:46:37.588Z,98598.47
2023-05-17T04:48:10.108Z,98603.41
2023-05-17T04:49:43.672Z,98612.88
2023-05-17T04:51:17.193Z,98610.53
2023-05-17T04:52:50.764Z,98615.41
2023-05-17T04:54:23.812Z,98620.38
2023-05-17T04:55:57.444Z,98617.72
2023-05-17T04:57:32.452Z,98611.28
2023-05-17T04:59:09.202Z,98618.97
2023-05-17T05:00:42.387Z,98619.72
2023-05-17T05:02:17.085Z,98613.69
2023-05-17T05:03:50.477Z,98611.50
2023-05-17T05:05:25.203Z,98610.31
2023-05-17T05:06:59.807Z,98617.66
2023-05-17T05:08:35.056Z,98622.28
2023-05-17T05:10:09.664Z,98630.56
2023-05-17T05:11:43.617Z,98620.84
2023-05-17T05:13:16.975Z,98620.63
2023-05-17T05:14:50.204Z,98627.19
2023-05-17T05:16:23.637Z,98613.22
2023-05-17T05:18:00.454Z,98616.03
2023-05-17T05:19:35.513Z,98623.34
2023-05-17T05:21:08.725Z,98614.69
2023-05-17T05:22:43.290Z,98605.94
2023-05-17T05:24:17.458Z,98608.97
2023-05-17T05:25:50.859Z,98608.13
2023-05-17T05:27:23.442Z,98604.81
2023-05-17T05:28:57.465Z,98605.78
2023-05-17T05:30:31.286Z,98602.88
2023-05-17T05:32:04.566Z,98607.72
2023-05-17T05:33:43.433Z,98601.25
2023-05-17T05:35:17.371Z,98600.66
2023-05-17T05:36:50.737Z,98602.22
2023-05-17T05:38:25.481Z,98601.13
2023-05-17T05:39:58.744Z,98595.59
2023-05-17T05:41:32.834Z,98588.41
2023-05-17T05:43:06.293Z,98595.94
2023-05-17T05:44:39.522Z,98594.97
2023-05-17T05:46:13.577Z,98592.75
2023-05-17T05:47:47.854Z,98601.09
2023-05-17T05:49:21.421Z,98597.28
2023-05-17T05:50:55.074Z,98597.97
2023-05-17T05:52:28.185Z,98587.69
2023-05-17T05:54:03.579Z,98600.28
2023-05-17T05:55:36.949Z,98596.03
2023-05-17T05:57:10.172Z,98606.16
2023-05-17T05:58:43.397Z,98604.63
2023-05-17T06:00:18.674Z,98604.47
2023-05-17T06:01:52.969Z,98600.59
2023-05-17T06:03:26.213Z,98603.28
2023-05-17T06:04:59.352Z,98602.00
2023-05-17T06:06:32.669Z,98601.47
2023-05-17T06:08:06.862Z,98597.88
2023-05-17T06:09:41.515Z,98597.09
2023-05-17T06:11:15.333Z,98593.25
2023-05-17T06:12:48.528Z,98586.56
2023-05-17T06:14:21.997Z,98582.34
2023-05-17T06:15:55.250Z,98580.28
2023-05-17T06:17:28.541Z,98588.34
2023-05-17T06:19:01.894Z,98577.00
2023-05-17T06:20:35.197Z,98571.34
2023-05-17T06:22:08.332Z,98567.66
2023-05-17T06:23:41.625Z,98575.00
2023-05-17T06:25:16.433Z,98570.84
2023-05-17T06:26:49.923Z,98578.53
2023-05-17T06:28:23.063Z,98573.84
2023-05-17T06:29:56.229Z,98584.09
2023-05-17T06:31:29.350Z,98585.91
2023-05-17T06:33:02.915Z,98572.44
2023-05-17T06:34:36.416Z,98572.00
2023-05-17T06:36:09.964Z,98574.78
2023-05-17T06:37:43.512Z,98568.50
2023-05-17T06:39:17.045Z,98577.84
2023-05-17T06:40:54.991Z,98577.34
2023-05-17T06:42:28.155Z,98580.72
2023-05-17T06:44:01.352Z,98576.78
2023-05-17T06:45:34.791Z,98579.47
2023-05-17T06:47:07.996Z,98569.47
2023-05-17T06:48:41.336Z,98571.59
2023-05-17T06:50:14.988Z,98577.00
2023-05-17T06:51:48.974Z,98579.53
2023-05-17T06:53:22.449Z,98571.59
2023-05-17T06:54:55.610Z,98564.81
2023-05-17T06:56:30.409Z,98558.97
2023-05-17T06:58:04.050Z,98577.03
2023-05-17T06:59:37.432Z,98579.47
2023-05-17T07:01:10.627Z,98582.34
2023-05-17T07:02:43.865Z,98574.72
2023-05-17T07:04:17.404Z,98575.03
2023-05-17T07:05:50.695Z,98578.03
2023-05-17T07:07:23.888Z,98587.22
2023-05-17T07:08:56.997Z,98591.28
2023-05-17T07:10:30.441Z,98588.13
2023-05-17T07:12:06.931Z,98584.75
2023-05-17T07:13:40.146Z,98588.44
2023-05-17T07:15:13.436Z,98583.50
2023-05-17T07:16:48.075Z,98571.16
2023-05-17T07:18:21.299Z,98575.63
2023-05-17T07:19:54.770Z,98570.84
2023-05-17T07:21:28.018Z,98571.16
2023-05-17T07:23:01.554Z,98570.31
2023-05-17T07:24:35.962Z,98567.44
2023-05-17T07:26:11.556Z,98563.91
2023-05-17T07:27:46.112Z,98558.06
2023-05-17T07:29:19.544Z,98560.31
2023-05-17T07:30:52.729Z,98563.72
2023-05-17T07:32:26.078Z,98556.38
2023-05-17T07:33:59.417Z,98554.38
2023-05-17T07:35:33.669Z,98553.38
2023-05-17T07:37:07.019Z,98560.50
2023-05-17T07:38:41.884Z,98561.97
2023-05-17T07:40:15.566Z,98555.09
2023-05-17T07:41:49.093Z,98563.19
2023-05-17T07:43:23.666Z,98555.19
2023-05-17T07:44:56.986Z,98563.34
2023-05-17T07:46:30.220Z,98560.16
2023-05-17T07:48:03.881Z,98550.13
2023-05-17T07:49:37.076Z,98545.44
2023-05-17T07:51:10.273Z,98554.25
2023-05-17T07:52:43.686Z,98557.28
2023-05-17T07:54:25.163Z,98548.97
2023-05-17T07:55:58.341Z,98559.13
2023-05-17T07:57:31.576Z,98562.00
2023-05-17T07:59:06.078Z,98564.09
2023-05-17T08:00:41.205Z,98554.16
2023-05-17T08:02:14.363Z,98556.69
2023-05-17T08:03:49.141Z,98553.50
2023-05-17T08:05:22.485Z,98552.69
2023-05-17T08:06:55.929Z,98554.38
2023-05-17T08:08:29.065Z,98558.09
2023-05-17T08:10:02.352Z,98558.72
2023-05-17T08:11:35.770Z,98561.03
2023-05-17T08:13:09.352Z,98562.03
2023-05-17T08:14:43.957Z,98566.34
2023-05-17T08:16:17.294Z,98560.88
2023-05-17T08:17:50.498Z,98568.63
2023-05-17T08:19:24.261Z,98559.72
2023-05-17T08:20:57.704Z,98572.38
2023-05-17T08:22:31.004Z,98569.00
2023-05-17T08:24:04.604Z,98568.28
2023-05-17T08:25:38.143Z,98569.81
2023-05-17T08:27:11.525Z,98564.91
2023-05-17T08:28:44.969Z,98567.97
2023-05-17T08:30:28.560Z,98560.19
2023-05-17T08:32:02.948Z,98566.75
2023-05-17T08:33:39.611Z,98559.34
2023-05-17T08:35:14.136Z,98552.91
2023-05-17T08:36:50.232Z,98568.19
2023-05-17T08:38:23.707Z,98555.13
2023-05-17T08:39:57.090Z,98564.28
2023-05-17T08:41:30.512Z,98564.78
2023-05-17T08:43:04.364Z,98571.41
2023-05-17T08:44:38.851Z,98570.25
2023-05-17T08:46:14.028Z,98563.81
2023-05-17T08:47:47.489Z,98566.03
2023-05-17T08:49:22.735Z,98562.50
2023-05-17T08:50:58.130Z,98563.84
2023-05-17T08:52:32.493Z,98560.81
2023-05-17T08:54:06.338Z,98568.09
2023-05-17T08:55:42.587Z,98560.09
2023-05-17T08:57:18.242Z,98554.50
2023-05-17T08:58:58.000Z,98557.38
2023-05-17T09:00:33.846Z,98560.81
2023-05-17T09:02:09.223Z,98557.09
2023-05-17T09:03:46.662Z,98561.78
2023-05-17T09:05:20.486Z,98561.84
2023-05-17T09:06:53.933Z,98559.13
2023-05-17T09:08:27.998Z,98562.16
2023-05-17T09:10:04.211Z,98567.59
2023-05-17T09:11:37.579Z,98570.09
2023-05-17T09:13:13.579Z,98563.16
2023-05-17T09:14:46.947Z,98569.28
2023-05-17T09:16:21.526Z,98560.78
2023-05-17T09:17:56.865Z,98563.81
2023-05-17T09:19:32.199Z,98560.72
2023-05-17T09:21:05.803Z,98553.91
2023-05-17T09:22:39.338Z,98558.38
2023-05-17T09:24:12.553Z,98554.06
2023-05-17T09:25:49.056Z,98547.28
2023-05-17T09:27:22.253Z,98552.50
2023-05-17T09:28:55.985Z,98553.66
2023-05-17T09:30:30.191Z,98547.56
2023-05-17T09:32:14.709Z,98537.06
2023-05-17T09:33:51.789Z,98564.63
2023-05-17T09:35:29.976Z,98539.53
2023-05-17T09:37:04.353Z,98541.88
2023-05-17T09:38:37.548Z,98547.34
2023-05-17T09:40:11.249Z,98544.34
2023-05-17T09:41:47.166Z,98545.03
2023-05-17T09:43:25.904Z,98533.91
2023-05-17T09:45:00.200Z,98545.09
2023-05-17T09:46:35.259Z,98533.94
2023-05-17T09:48:16.507Z,98530.94
2023-05-17T09:49:51.265Z,98532.84
2023-05-17T09:51:37.704Z,98528.78
2023-05-17T09:53:24.057Z,98526.56
2023-05-17T09:54:58.748Z,98523.69
2023-05-17T09:56:32.662Z,98525.56
2023-05-17T09:58:05.906Z,98524.72
2023-05-17T09:59:39.914Z,98528.25
2023-05-17T10:01:13.382Z,98533.69
2023-05-17T10:02:49.246Z,98527.94
2023-05-17T10:04:26.235Z,98525.88
2023-05-17T10:06:04.044Z,98524.19
2023-05-17T10:07:38.907Z,98531.63
2023-05-17T10:09:14.835Z,98530.28
2023-05-17T10:10:50.609Z,98528.09
2023-05-17T10:12:25.730Z,98531.28
2023-05-17T10:14:06.675Z,98519.44
2023-05-17T10:15:41.883Z,98523.88
2023-05-17T10:17:16.673Z,98522.19
2023-05-17T10:18:51.025Z,98528.78
2023-05-17T10:20:24.511Z,98524.03
2023-05-17T10:22:11.105Z,98511.34
2023-05-17T10:23:52.755Z,98517.75
2023-05-17T10:25:26.721Z,98518.09
2023-05-17T10:27:00.859Z,98520.47
2023-05-17T10:28:34.614Z,98508.28
2023-05-17T10:30:11.524Z,98509.63
2023-05-17T10:31:46.457Z,98522.84
2023-05-17T10:33:20.414Z,98517.91
2023-05-17T10:35:09.279Z,98513.34
2023-05-17T10:36:45.520Z,98513.00
2023-05-17T10:38:24.016Z,98502.84
2023-05-17T10:39:59.822Z,98505.84
2023-05-17T10:41:35.368Z,98497.50
2023-05-17T10:43:10.895Z,98506.81
2023-05-17T10:44:44.851Z,98489.69
2023-05-17T10:46:21.446Z,98497.06
2023-05-17T10:47:55.197Z,98494.78
2023-05-17T10:49:31.784Z,98498.44
2023-05-17T10:51:08.295Z,98493.63
2023-05-17T10:52:48.581Z,98499.69
2023-05-17T10:54:36.019Z,98487.66
2023-05-17T10:56:09.355Z,98490.63
2023-05-17T10:57:50.999Z,98494.13
2023-05-17T10:59:27.123Z,98494.97
2023-05-17T11:01:00.666Z,98480.84
2023-05-17T11:02:35.227Z,98495.69
2023-05-17T11:04:23.841Z,98494.63
2023-05-17T11:06:24.673Z,98493.97
2023-05-17T11:08:15.348Z,98499.44
2023-05-17T11:09:51.946Z,98505.44
2023-05-17T11:11:25.422Z,98502.69
2023-05-17T11:12:58.769Z,98504.19
2023-05-17T11:14:45.375Z,98511.13
2023-05-17T11:16:19.130Z,98514.03
2023-05-17T11:17:56.352Z,98516.66
2023-05-17T11:19:29.747Z,98519.66
2023-05-17T11:21:09.389Z,98517.41
2023-05-17T11:22:44.911Z,98514.78
2023-05-17T11:24:26.973Z,98534.25
2023-05-17T11:26:17.471Z,98558.22
2023-05-17T11:27:51.995Z,98570.78
2023-05-17T11:29:30.578Z,98585.19
2023-05-17T11:31:03.814Z,98584.56
2023-05-17T11:32:37.248Z,98604.78
2023-05-17T11:34:11.193Z,98614.66
2023-05-17T11:35:45.758Z,98623.06
2023-05-17T11:37:27.916Z,98630.91
2023-05-17T11:39:12.225Z,98621.16
2023-05-17T11:40:47.842Z,98620.91
2023-05-17T11:42:27.258Z,98616.72
2023-05-17T11:44:00.719Z,98626.44
2023-05-17T11:45:43.608Z,98629.22
2023-05-17T11:47:17.050Z,98635.78
2023-05-17T11:48:52.294Z,98641.75
2023-05-17T11:50:26.573Z,98645.63
2023-05-17T11:52:00.217Z,98637.72
2023-05-17T11:53:33.914Z,98651.44
2023-05-17T11:55:08.706Z,98652.75
2023-05-17T11:56:43.979Z,98664.06
2023-05-17T11:58:20.620Z,98661.38
2023-05-17T12:00:00.434Z,98660.38
2023-05-17T12:01:44.373Z,98654.03
2023-05-17T12:03:21.951Z,98644.09
2023-05-17T12:04:55.668Z,98643.94
2023-05-17T12:06:28.964Z,98645.91
2023-05-17T12:08:02.400Z,98648.09
2023-05-17T12:09:35.770Z,98637.28
2023-05-17T12:11:13.429Z,98637.19
2023-05-17T12:12:46.750Z,98651.75
2023-05-17T12:14:21.915Z,98639.69
2023-05-17T12:15:57.999Z,98632.34
2023-05-17T12:17:38.594Z,98640.91
2023-05-17T12:19:19.229Z,98635.09
2023-05-17T12:20:56.873Z,98622.47
2023-05-17T12:22:30.128Z,98626.50
2023-05-17T12:24:03.471Z,98624.94
2023-05-17T12:25:36.674Z,98617.13
2023-05-17T12:27:10.501Z,98624.59
2023-05-17T12:28:45.049Z,98617.56
2023-05-17T12:30:20.685Z,98623.31
2023-05-17T12:31:55.181Z,98623.94
2023-05-17T12:33:29.720Z,98621.78
2023-05-17T12:35:03.295Z,98628.81
2023-05-17T12:36:38.359Z,98625.19
2023-05-17T12:38:12.098Z,98625.00
2023-05-17T12:39:45.697Z,98628.41
2023-05-17T12:41:19.727Z,98639.00
2023-05-17T12:43:02.554Z,98640.56
2023-05-17T12:44:35.780Z,98648.47
2023-05-17T12:46:11.805Z,98652.75
2023-05-17T12:47:45.196Z,98647.88
2023-05-17T12:49:18.849Z,98653.00
2023-05-17T12:50:52.456Z,98653.63
2023-05-17T12:52:25.713Z,98650.16
2023-05-17T12:54:00.697Z,98658.47
2023-05-17T12:55:38.077Z,98659.78
2023-05-17T12:57:14.118Z,98665.13
2023-05-17T12:59:06.370Z,98664.25
2023-05-17T13:00:39.728Z,98671.00
2023-05-17T13:02:14.655Z,98677.75
2023-05-17T13:03:52.744Z,98676.03
2023-05-17T13:05:26.479Z,98677.00
2023-05-17T13:07:01.364Z,98676.03
2023-05-17T13:08:35.594Z,98679.69
2023-05-17T13:10:21.634Z,98684.06
2023-05-17T13:11:57.360Z,98675.22
2023-05-17T13:13:34.712Z,98678.84
2023-05-17T13:15:09.066Z,98672.66
2023-05-17T13:16:42.984Z,98677.25
2023-05-17T13:18:18.284Z,98686.75
2023-05-17T13:19:51.866Z,98683.75
2023-05-17T13:21:26.213Z,98683.75
2023-05-17T13:22:59.557Z,98682.69
2023-05-17T13:24:36.102Z,98684.63
2023-05-17T13:26:11.097Z,98682.69
2023-05-17T13:27:48.814Z,98687.91
2023-05-17T13:29:35.318Z,98690.06
2023-05-17T13:31:12.601Z,98698.06
2023-05-17T13:32:47.611Z,98692.94
2023-05-17T13:34:22.471Z,98679.28
2023-05-17T13:35:55.929Z,98700.19
2023-05-17T13:37:29.453Z,98699.34
2023-05-17T13:39:03.029Z,98704.03
2023-05-17T13:40:36.369Z,98707.06
2023-05-17T13:42:10.000Z,98708.53
2023-05-17T13:43:43.446Z,98709.81
2023-05-17T13:45:16.685Z,98704.81
2023-05-17T13:46:49.984Z,98699.78
2023-05-17T13:48:23.344Z,98700.75
2023-05-17T13:49:58.096Z,98697.63
2023-05-17T13:51:31.315Z,98697.41
2023-05-17T13:53:05.079Z,98706.38
2023-05-17T13:54:39.221Z,98702.97
2023-05-17T13:56:12.576Z,98703.94
2023-05-17T13:57:46.831Z,98695.06
2023-05-17T13:59:20.066Z,98695.06
2023-05-17T14:00:53.483Z,98697.19
2023-05-17T14:02:26.767Z,98695.69
2023-05-17T14:04:00.883Z,98685.84
2023-05-17T14:05:36.728Z,98680.28
2023-05-17T14:07:10.138Z,98694.41
2023-05-17T14:08:44.965Z,98689.06
2023-05-17T14:10:18.545Z,98694.41
2023-05-17T14:11:51.880Z,98679.44
2023-05-17T14:13:25.223Z,98695.66
2023-05-17T14:14:58.501Z,98692.88
2023-05-17T14:16:32.004Z,98684.75
2023-05-17T14:18:06.389Z,98689.56
2023-05-17T14:19:39.908Z,98688.41
2023-05-17T14:21:14.633Z,98685.00
2023-05-17T14:22:47.782Z,98687.31
2023-05-17T14:24:21.045Z,98692.03
2023-05-17T14:25:54.447Z,98680.16
2023-05-17T14:27:27.657Z,98675.31
2023-05-17T14:29:01.061Z,98683.00
2023-05-17T14:30:34.628Z,98682.59
2023-05-17T14:32:08.388Z,98677.25
2023-05-17T14:33:41.810Z,98681.53
2023-05-17T14:35:16.691Z,98676.28
2023-05-17T14:36:51.826Z,98676.19
2023-05-17T14:38:25.253Z,98668.06
2023-05-17T14:40:06.106Z,98672.97
2023-05-17T14:41:40.300Z,98681.28
2023-05-17T14:43:14.530Z,98672.66
2023-05-17T14:44:48.034Z,98673.25
2023-05-17T14:46:21.269Z,98676.09
2023-05-17T14:47:55.210Z,98673.75
2023-05-17T14:49:28.561Z,98674.09
2023-05-17T14:51:03.436Z,98670.56
2023-05-17T14:52:38.175Z,98666.06
2023-05-17T14:54:13.491Z,98674.44
2023-05-17T14:55:47.790Z,98673.97
2023-05-17T14:57:21.644Z,98674.63
2023-05-17T14:58:56.409Z,98667.22
2023-05-17T15:00:29.646Z,98669.38
2023-05-17T15:02:03.034Z,98674.13
2023-05-17T15:03:36.646Z,98663.22
2023-05-17T15:05:10.777Z,98668.56
2023-05-17T15:06:44.640Z,98672.66
2023-05-17T15:08:19.376Z,98665.22
2023-05-17T15:09:52.683Z,98668.19
2023-05-17T15:11:25.952Z,98663.94
2023-05-17T15:12:59.213Z,98662.19
2023-05-17T15:14:32.634Z,98662.56
2023-05-17T15:16:06.420Z,98655.63
2023-05-17T15:17:39.704Z,98660.09
2023-05-17T15:19:13.610Z,98662.28
2023-05-17T15:20:47.035Z,98660.53
2023-05-17T15:22:20.271Z,98657.75
2023-05-17T15:23:54.856Z,98656.94
2023-05-17T15:25:28.149Z,98653.50
2023-05-17T15:27:01.797Z,98657.16
2023-05-17T15:28:35.164Z,98656.19
2023-05-17T15:30:11.322Z,98664.41
2023-05-17T15:31:45.956Z,98657.81
2023-05-17T15:33:19.367Z,98662.53
2023-05-17T15:34:53.124Z,98662.53
2023-05-17T15:36:26.439Z,98648.00
2023-05-17T15:38:00.395Z,98663.72
2023-05-17T15:39:35.251Z,98659.09
2023-05-17T15:41:11.605Z,98662.75
2023-05-17T15:42:44.855Z,98665.31
2023-05-17T15:44:18.828Z,98661.16
2023-05-17T15:45:52.424Z,98671.84
2023-05-17T15:47:38.819Z,98672.16
2023-05-17T15:49:15.878Z,98674.50
2023-05-17T15:50:49.177Z,98680.19
2023-05-17T15:52:22.515Z,98687.88
2023-05-17T15:53:56.429Z,98687.75
2023-05-17T15:55:31.316Z,98677.91
2023-05-17T15:57:04.865Z,98686.91
2023-05-17T15:58:38.244Z,98687.09
2023-05-17T16:00:12.487Z,98687.56
2023-05-17T16:01:46.522Z,98689.28
2023-05-17T16:03:19.783Z,98690.34
2023-05-17T16:04:53.200Z,98687.78
2023-05-17T16:06:26.841Z,98683.53
2023-05-17T16:08:00.221Z,98689.28
2023-05-17T16:09:33.471Z,98692.28
2023-05-17T16:11:11.128Z,98688.13
2023-05-17T16:12:44.398Z,98688.13
2023-05-17T16:14:18.254Z,98694.44
2023-05-17T16:15:51.741Z,98690.06
2023-05-17T16:17:24.994Z,98690.38
2023-05-17T16:18:58.697Z,98687.59
2023-05-17T16:20:32.433Z,98697.53
2023-05-17T16:22:06.212Z,98693.16
2023-05-17T16:23:39.617Z,98694.13
2023-05-17T16:25:13.105Z,98694.53
2023-05-17T16:26:47.796Z,98698.38
2023-05-17T16:28:21.735Z,98694.22
2023-05-17T16:29:54.969Z,98698.81
2023-05-17T16:31:28.812Z,98697.09
2023-05-17T16:33:02.104Z,98703.41
2023-05-17T16:34:35.353Z,98703.41
2023-05-17T16:36:09.224Z,98699.78
2023-05-17T16:37:43.589Z,98711.31
2023-05-17T16:39:16.912Z,98718.34
2023-05-17T16:40:50.457Z,98717.28
2023-05-17T16:42:25.342Z,98713.69
2023-05-17T16:43:58.593Z,98712.81
2023-05-17T16:45:31.831Z,98719.84
2023-05-17T16:47:05.425Z,98720.72
2023-05-17T16:48:38.715Z,98716.09
2023-05-17T16:50:13.577Z,98711.72
2023-05-17T16:51:46.824Z,98720.25
2023-05-17T16:53:20.172Z,98720.25
2023-05-17T16:54:53.946Z,98725.59
2023-05-17T16:56:27.630Z,98725.50
2023-05-17T16:58:02.267Z,98720.06
2023-05-17T16:59:35.656Z,98725.19
2023-05-17T17:01:09.081Z,98720.72
2023-05-17T17:02:42.520Z,98735.66
2023-05-17T17:04:15.884Z,98735.44
2023-05-17T17:05:49.253Z,98737.34
2023-05-17T17:07:22.707Z,98732.47
2023-05-17T17:08:56.248Z,98732.56
2023-05-17T17:10:29.799Z,98741.00
2023-05-17T17:12:16.262Z,98736.94
2023-05-17T17:13:58.141Z,98739.06
2023-05-17T17:15:31.353Z,98740.97
2023-05-17T17:17:04.643Z,98746.94
2023-05-17T17:18:37.764Z,98746.25
2023-05-17T17:20:13.044Z,98747.28
2023-05-17T17:21:46.336Z,98743.84
2023-05-17T17:23:19.687Z,98749.13
2023-05-17T17:24:52.863Z,98752.06
2023-05-17T17:26:26.364Z,98747.38
2023-05-17T17:27:59.539Z,98757.53
2023-05-17T17:29:34.639Z,98751.56
2023-05-17T17:31:08.003Z,98756.75
2023-05-17T17:32:41.762Z,98746.56
2023-05-17T17:34:14.963Z,98753.78
2023-05-17T17:35:48.165Z,98754.94
2023-05-17T17:37:21.386Z,98754.56
2023-05-17T17:38:54.932Z,98761.59
2023-05-17T17:40:28.438Z,98754.56
2023-05-17T17:42:02.401Z,98752.09
2023-05-17T17:43:35.556Z,98749.44
2023-05-17T17:45:11.716Z,98744.47
2023-05-17T17:46:44.951Z,98746.59
2023-05-17T17:48:18.282Z,98748.47
2023-05-17T17:49:51.532Z,98742.31
2023-05-17T17:51:24.868Z,98745.25
2023-05-17T17:52:58.103Z,98766.75
2023-05-17T17:54:31.415Z,98760.09
2023-05-17T17:56:06.636Z,98771.69
2023-05-17T17:57:40.288Z,98768.25
2023-05-17T17:59:13.542Z,98771.88
2023-05-17T18:00:48.472Z,98776.47
2023-05-17T18:02:21.638Z,98771.31
2023-05-17T18:03:55.424Z,98774.94
2023-05-17T18:05:28.857Z,98772.81
2023-05-17T18:07:02.737Z,98776.53
2023-05-17T18:08:35.933Z,98782.22
2023-05-17T18:10:10.083Z,98783.09
2023-05-17T18:11:43.308Z,98780.53
2023-05-17T18:13:17.802Z,98779.56
2023-05-17T18:14:50.979Z,98781.38
2023-05-17T18:16:26.059Z,98785.84
2023-05-17T18:17:59.398Z,98776.25
2023-05-17T18:19:32.639Z,98778.63
2023-05-17T18:21:06.221Z,98777.75
2023-05-17T18:22:39.992Z,98777.94
2023-05-17T18:24:13.221Z,98786.03
2023-05-17T18:25:47.076Z,98786.19
2023-05-17T18:27:20.226Z,98787.25
2023-05-17T18:28:53.858Z,98782.09
2023-05-17T18:30:27.137Z,98787.44
2023-05-17T18:32:02.016Z,98786.50
2023-05-17T18:33:35.296Z,98792.38
2023-05-17T18:35:09.632Z,98788.78